createdAt,value
2023-03-01T05:02:12.429Z,100019.84
2023-03-01T05:04:40.127Z,100015.44
2023-03-01T05:07:06.826Z,100015.50
2023-03-01T05:09:33.526Z,100018.13
2023-03-01T05:12:00.111Z,100023.28
2023-03-01T05:14:26.606Z,100019.94
2023-03-01T05:16:53.105Z,100023.09
2023-03-01T05:19:23.583Z,100018.25
2023-03-01T05:22:05.774Z,100018.13
2023-03-01T05:24:34.997Z,100018.78
2023-03-01T05:27:03.396Z,100026.34
2023-03-01T05:29:32.301Z,100022.22
2023-03-01T05:32:01.792Z,100009.25
2023-03-01T05:34:33.848Z,100015.41
2023-03-01T05:37:01.342Z,100011.34
2023-03-01T05:39:29.879Z,100008.50
2023-03-01T05:41:58.554Z,100006.78
2023-03-01T05:44:26.416Z,100011.13
2023-03-01T05:46:53.419Z,100009.34
2023-03-01T05:49:20.372Z,100010.13
2023-03-01T05:51:52.217Z,100016.50
2023-03-01T05:54:19.705Z,100010.03
2023-03-01T05:56:52.542Z,100017.31
2023-03-01T05:59:22.541Z,100015.66
2023-03-01T06:01:49.584Z,100011.19
2023-03-01T06:04:16.430Z,100003.44
2023-03-01T06:06:43.261Z,100003.44
2023-03-01T06:09:10.883Z,100006.91
2023-03-01T06:11:43.794Z,100007.94
2023-03-01T06:14:11.462Z,100011.50
2023-03-01T06:17:15.243Z,100013.00
2023-03-01T06:23:10.712Z,100005.88
2023-03-01T06:25:40.840Z,99994.09
2023-03-01T06:28:07.452Z,100002.06
2023-03-01T06:30:35.369Z,99999.69
2023-03-01T06:33:04.157Z,99996.25
2023-03-01T06:35:35.225Z,99988.41
2023-03-01T06:38:04.105Z,99981.06
2023-03-01T06:40:32.205Z,99978.34
2023-03-01T06:43:08.650Z,99979.47
2023-03-01T06:49:01.405Z,99981.69
2023-03-01T06:51:27.879Z,99979.84
2023-03-01T06:53:54.400Z,99989.41
2023-03-01T06:56:20.985Z,99991.25
2023-03-01T06:58:47.696Z,99981.75
2023-03-01T08:44:01.308Z,99932.25
2023-03-01T08:46:34.213Z,99939.06
2023-03-01T08:49:01.051Z,99927.94
2023-03-01T08:51:27.564Z,99921.91
2023-03-01T08:53:54.134Z,99927.09
2023-03-01T08:56:20.746Z,99920.09
2023-03-01T08:58:49.097Z,99915.88
2023-03-01T09:01:18.890Z,99915.00
2023-03-01T09:03:46.157Z,99921.97
2023-03-01T09:06:13.428Z,99910.63
2023-03-01T09:08:42.228Z,99901.13
2023-03-01T09:11:12.155Z,99908.06
2023-03-01T09:13:39.161Z,99904.63
2023-03-01T09:16:08.079Z,99913.28
2023-03-01T09:18:36.780Z,99906.31
2023-03-01T09:21:11.207Z,99899.41
2023-03-01T09:23:40.520Z,99896.78
2023-03-01T09:26:12.515Z,99902.84
2023-03-01T09:28:39.943Z,99899.38
2023-03-01T09:31:07.634Z,99899.41
2023-03-01T09:33:34.672Z,99894.19
2023-03-01T09:36:04.797Z,99887.28
2023-03-01T09:38:31.820Z,99880.25
2023-03-01T09:40:59.880Z,99878.47
2023-03-01T09:43:38.764Z,99873.28
2023-03-01T09:46:10.899Z,99875.03
2023-03-01T09:48:44.451Z,99874.97
2023-03-01T09:51:19.755Z,99874.88
2023-03-01T09:53:46.885Z,99877.56
2023-03-01T09:56:31.399Z,99864.53
2023-03-01T09:59:24.427Z,99867.91
2023-03-01T10:02:00.345Z,99863.34
2023-03-01T10:04:47.456Z,99861.94
2023-03-01T10:07:37.856Z,99863.56
2023-03-01T10:10:08.491Z,99864.25
2023-03-01T10:12:41.006Z,99867.88
2023-03-01T10:15:08.946Z,99861.75
2023-03-01T10:17:52.065Z,99873.22
2023-03-01T10:20:23.354Z,99852.22
2023-03-01T10:22:56.069Z,99852.13
2023-03-01T10:25:56.829Z,99846.06
2023-03-01T10:28:32.288Z,99840.69
2023-03-01T10:31:00.366Z,99833.69
2023-03-01T10:33:32.092Z,99836.19
2023-03-01T10:35:58.868Z,99840.81
2023-03-01T10:38:28.790Z,99834.66
2023-03-01T10:41:00.402Z,99827.63
2023-03-01T10:43:33.049Z,99834.59
2023-03-01T10:45:59.749Z,99822.38
2023-03-01T10:48:29.226Z,99824.41
2023-03-01T10:50:58.794Z,99818.97
2023-03-01T10:53:38.280Z,99815.59
2023-03-01T10:56:11.956Z,99824.28
2023-03-01T10:58:40.628Z,99815.78
2023-03-01T11:01:26.539Z,99808.53
2023-03-01T11:04:12.326Z,99810.06
2023-03-01T11:06:40.761Z,99802.38
2023-03-01T11:09:18.947Z,99799.91
2023-03-01T11:11:46.373Z,99792.84
2023-03-01T11:14:27.370Z,99790.25
2023-03-01T11:17:23.947Z,99792.00
2023-03-01T11:20:15.557Z,99795.38
2023-03-01T11:22:49.811Z,99789.50
2023-03-01T11:25:20.544Z,99783.16
2023-03-01T11:27:48.169Z,99778.66
2023-03-01T11:30:31.773Z,99782.22
2023-03-01T11:33:01.369Z,99776.03
2023-03-01T11:35:29.720Z,99774.47
2023-03-01T11:37:56.258Z,99771.84
2023-03-01T11:40:31.965Z,99775.16
2023-03-01T11:43:10.798Z,99776.13
2023-03-01T11:45:52.403Z,99763.13
2023-03-01T11:48:59.880Z,99762.31
2023-03-01T11:51:56.784Z,99749.06
2023-03-01T11:54:54.469Z,99750.66
2023-03-01T11:57:54.842Z,99748.81
2023-03-01T12:00:59.552Z,99744.53
2023-03-01T12:03:44.699Z,99744.38
2023-03-01T12:06:25.279Z,99728.00
2023-03-01T12:09:03.514Z,99731.59
2023-03-01T12:11:36.656Z,99728.91
2023-03-01T12:14:12.450Z,99707.00
2023-03-01T12:17:07.108Z,99710.34
2023-03-01T12:19:33.743Z,99712.84
2023-03-01T12:22:07.867Z,99698.25
2023-03-01T12:24:52.678Z,99701.41
2023-03-01T12:27:28.476Z,99698.69
2023-03-01T12:30:22.756Z,99690.19
2023-03-01T12:33:19.924Z,99682.56
2023-03-01T12:36:16.577Z,99676.59
2023-03-01T12:38:49.865Z,99664.91
2023-03-01T12:41:25.512Z,99670.19
2023-03-01T12:44:04.130Z,99660.81
2023-03-01T12:46:47.406Z,99666.91
2023-03-01T12:49:18.508Z,99657.94
2023-03-01T12:51:59.708Z,99664.66
2023-03-01T12:54:34.288Z,99647.00
2023-03-01T12:57:26.036Z,99651.59
2023-03-01T13:00:23.684Z,99651.34
2023-03-01T13:03:03.087Z,99650.56
2023-03-01T13:05:52.799Z,99649.75
2023-03-01T13:08:37.672Z,99635.88
2023-03-01T13:11:08.065Z,99644.31
2023-03-01T13:13:34.613Z,99639.81
2023-03-01T13:16:30.523Z,99627.59
2023-03-01T13:19:10.982Z,99629.13
2023-03-01T13:21:37.522Z,99636.03
2023-03-01T13:24:04.477Z,99632.06
2023-03-01T13:26:31.551Z,99628.91
2023-03-01T13:28:58.793Z,99621.63
2023-03-01T13:31:28.368Z,99621.75
2023-03-01T13:33:57.050Z,99612.84
2023-03-01T13:37:25.201Z,99615.56
2023-03-01T13:43:52.744Z,99629.75
2023-03-01T13:47:01.626Z,99618.34
2023-03-01T14:01:55.472Z,99599.13
2023-03-01T14:09:32.008Z,99604.38
2023-03-01T14:13:16.560Z,99601.88
2023-03-01T14:16:08.357Z,99594.56
2023-03-01T14:19:06.228Z,99601.75
2023-03-01T14:21:41.361Z,99586.84
2023-03-01T14:24:18.349Z,99599.16
2023-03-01T14:26:47.262Z,99597.59
2023-03-01T14:29:27.104Z,99597.34
2023-03-01T14:31:54.234Z,99593.28
2023-03-01T14:34:25.839Z,99601.59
2023-03-01T14:36:57.656Z,99577.50
2023-03-01T14:39:30.162Z,99595.38
2023-03-01T14:44:38.799Z,99586.63
2023-03-01T14:47:15.753Z,99581.41
2023-03-01T14:49:43.939Z,99581.50
2023-03-01T14:52:26.643Z,99575.78
2023-03-01T14:54:58.554Z,99579.63
2023-03-01T14:57:29.524Z,99585.84
2023-03-01T15:00:21.291Z,99584.25
2023-03-01T15:02:56.195Z,99581.13
2023-03-01T15:05:37.609Z,99575.63
2023-03-01T15:08:46.462Z,99578.38
2023-03-01T15:11:39.418Z,99573.91
2023-03-01T15:15:03.753Z,99569.81
2023-03-01T15:17:44.238Z,99567.19
2023-03-01T15:20:45.983Z,99568.34
2023-03-01T15:23:36.389Z,99567.44
2023-03-01T15:26:32.118Z,99566.63
2023-03-01T15:29:49.300Z,99574.38
2023-03-01T15:32:41.369Z,99587.66
2023-03-01T15:35:37.109Z,99595.38
2023-03-01T15:38:05.157Z,99598.91
2023-03-01T15:40:40.422Z,99601.38
2023-03-01T15:43:44.542Z,99604.19
2023-03-01T15:46:26.769Z,99608.56
2023-03-01T15:48:59.446Z,99605.81
2023-03-01T15:51:39.243Z,99607.75
2023-03-01T15:54:20.091Z,99609.66
2023-03-01T15:56:49.470Z,99600.88
2023-03-01T15:59:16.791Z,99608.56
2023-03-01T16:01:50.307Z,99598.03
2023-03-01T16:05:11.005Z,99599.88
2023-03-01T16:07:44.991Z,99596.56
2023-03-01T16:10:17.656Z,99599.84
2023-03-01T16:12:44.454Z,99603.88
2023-03-01T16:15:20.215Z,99608.63
2023-03-01T16:17:46.829Z,99610.38
2023-03-01T16:20:28.419Z,99621.13
2023-03-01T16:23:01.166Z,99621.06
2023-03-01T16:25:28.549Z,99618.19
2023-03-01T16:27:56.234Z,99611.28
2023-03-01T16:30:23.898Z,99618.59
2023-03-01T16:32:51.040Z,99617.59
2023-03-01T16:35:20.257Z,99620.28
2023-03-01T16:37:47.439Z,99618.44
2023-03-01T16:40:21.826Z,99619.31
2023-03-01T16:42:52.212Z,99616.78
2023-03-01T16:45:25.063Z,99621.13
2023-03-01T16:47:55.507Z,99606.44
2023-03-01T16:50:23.119Z,99610.88
2023-03-01T16:52:49.916Z,99618.81
2023-03-01T16:55:18.095Z,99615.31
2023-03-01T16:57:50.695Z,99631.81
2023-03-01T17:03:34.851Z,99624.13
2023-03-01T17:10:45.377Z,99625.16
2023-03-01T17:13:43.203Z,99619.88
2023-03-01T17:18:17.673Z,99624.25
2023-03-01T17:19:52.189Z,99619.94
2023-03-01T17:23:03.840Z,99615.75
2023-03-01T17:25:59.801Z,99618.56
2023-03-01T17:28:29.953Z,99621.03
2023-03-01T17:30:58.004Z,99634.00
2023-03-01T17:33:27.472Z,99623.56
2023-03-01T17:35:54.400Z,99625.41
2023-03-01T17:38:36.536Z,99628.03
2023-03-01T17:41:04.636Z,99629.75
2023-03-01T17:43:31.914Z,99630.63
2023-03-01T17:45:58.505Z,99637.69
2023-03-01T17:48:26.022Z,99633.41
2023-03-01T17:50:53.091Z,99643.03
2023-03-01T17:53:21.928Z,99635.13
2023-03-01T17:55:54.220Z,99632.56
2023-03-01T17:58:23.445Z,99629.09
2023-03-01T18:00:50.869Z,99632.56
2023-03-01T18:03:18.275Z,99638.66
2023-03-01T18:05:45.381Z,99630.94
2023-03-01T18:08:12.159Z,99633.63
2023-03-01T18:10:39.026Z,99623.25
2023-03-01T18:13:09.893Z,99638.00
2023-03-01T18:15:37.530Z,99634.56
2023-03-01T18:18:18.925Z,99642.31
2023-03-01T18:20:56.083Z,99638.91
2023-03-01T18:23:22.762Z,99638.94
2023-03-01T18:25:49.385Z,99632.94
2023-03-01T18:28:15.880Z,99632.06
2023-03-01T18:30:42.477Z,99625.97
2023-03-01T18:33:09.029Z,99622.56
2023-03-01T18:35:39.101Z,99615.63
2023-03-01T18:38:05.833Z,99623.41
2023-03-01T18:40:32.522Z,99626.91
2023-03-01T18:42:59.220Z,99623.41
2023-03-01T18:45:25.827Z,99622.56
2023-03-01T18:47:52.340Z,99625.16
2023-03-01T18:50:19.038Z,99621.72
2023-03-01T18:52:45.736Z,99621.72
2023-03-01T18:55:12.339Z,99621.69
2023-03-01T18:57:39.166Z,99623.41
2023-03-01T19:00:06.315Z,99622.56
2023-03-01T19:02:32.936Z,99624.31
2023-03-01T19:04:59.569Z,99625.13
2023-03-01T19:07:26.077Z,99624.22
2023-03-01T19:09:52.749Z,99621.59
2023-03-01T19:12:19.315Z,99628.50
2023-03-01T19:14:46.034Z,99627.66
2023-03-01T19:17:12.605Z,99624.09
2023-03-01T19:19:39.620Z,99629.16
2023-03-01T19:22:07.809Z,99624.00
2023-03-01T19:24:37.546Z,99619.69
2023-03-01T19:27:04.302Z,99630.88
2023-03-01T19:29:30.975Z,99622.31
2023-03-01T19:31:57.552Z,99632.59
2023-03-01T19:34:25.386Z,99628.31
2023-03-01T19:36:52.015Z,99629.16
2023-03-01T19:39:18.631Z,99622.22
2023-03-01T19:41:45.805Z,99625.50
2023-03-01T19:44:13.599Z,99624.69
2023-03-01T19:46:40.598Z,99629.00
2023-03-01T19:49:08.100Z,99628.09
2023-03-01T19:51:38.704Z,99622.06
2023-03-01T19:54:06.282Z,99624.66
2023-03-01T19:56:34.022Z,99626.44
2023-03-01T19:59:04.124Z,99623.88
2023-03-01T20:01:33.018Z,99628.13
2023-03-01T20:04:01.113Z,99633.16
2023-03-01T20:06:29.775Z,99634.03
2023-03-01T20:08:56.748Z,99635.72
2023-03-01T20:11:23.518Z,99627.97
2023-03-01T20:13:50.209Z,99624.53
2023-03-01T20:16:19.554Z,99629.69
2023-03-01T20:18:46.567Z,99633.09
2023-03-01T20:21:23.515Z,99637.19
2023-03-01T20:23:51.244Z,99633.66
2023-03-01T20:26:20.023Z,99638.72
2023-03-01T20:28:48.845Z,99633.59
2023-03-01T20:31:17.418Z,99634.50
2023-03-01T20:33:44.572Z,99641.47
2023-03-01T20:36:11.803Z,99635.44
2023-03-01T20:38:39.104Z,99640.53
2023-03-01T20:41:08.266Z,99637.06
2023-03-01T20:43:35.750Z,99634.47
2023-03-01T20:46:07.265Z,99635.31
2023-03-01T20:48:34.269Z,99633.56
2023-03-01T20:51:05.580Z,99635.75
2023-03-01T20:53:32.115Z,99639.31
2023-03-01T20:56:07.286Z,99640.31
2023-03-01T20:58:35.610Z,99634.25
2023-03-01T21:01:04.347Z,99641.22
2023-03-01T21:03:31.327Z,99634.38
2023-03-01T21:05:59.798Z,99641.31
2023-03-01T21:08:26.635Z,99636.16
2023-03-01T21:10:54.532Z,99636.09
2023-03-01T21:13:22.023Z,99631.78
2023-03-01T21:15:57.361Z,99642.94
2023-03-01T21:18:29.961Z,99636.06
2023-03-01T21:21:01.180Z,99643.75
2023-03-01T21:23:33.238Z,99631.69
2023-03-01T21:26:08.456Z,99639.47
2023-03-01T21:28:36.177Z,99631.56
2023-03-01T21:31:08.782Z,99638.38
2023-03-01T21:33:36.502Z,99632.50
2023-03-01T21:36:06.230Z,99624.75
2023-03-01T21:38:37.638Z,99625.59
2023-03-01T21:41:10.409Z,99626.31
2023-03-01T21:43:37.752Z,99628.81
2023-03-01T21:46:13.032Z,99633.88
2023-03-01T21:48:43.044Z,99624.56
2023-03-01T21:51:12.219Z,99621.00
2023-03-01T21:53:39.042Z,99624.53
2023-03-01T21:56:05.913Z,99630.28
2023-03-01T21:58:32.966Z,99628.38
